createdAt,value
2023-04-18T04:45:10.556Z,17.50
2023-04-18T04:47:37.497Z,15.70
2023-04-18T04:50:07.427Z,22.20
2023-04-18T04:52:34.602Z,16.73
2023-04-18T04:55:01.725Z,19.23
2023-04-18T04:57:28.775Z,14.40
2023-04-18T04:59:55.790Z,14.95
2023-04-18T05:02:23.679Z,19.38
2023-04-18T05:04:54.611Z,14.85
2023-04-18T05:07:22.001Z,17.92
2023-04-18T05:09:49.738Z,18.52
2023-04-18T05:12:16.772Z,17.60
2023-04-18T05:14:43.857Z,19.50
2023-04-18T05:17:10.952Z,18.55
2023-04-18T05:19:38.042Z,14.95
2023-04-18T05:22:04.926Z,16.73
2023-04-18T05:24:32.657Z,16.40
2023-04-18T05:26:59.700Z,13.55
2023-04-18T05:29:26.542Z,17.33
2023-04-18T05:31:53.380Z,14.25
2023-04-18T05:34:20.246Z,14.98
2023-04-18T05:36:47.961Z,13.93
2023-04-18T05:39:14.838Z,15.00
2023-04-18T05:41:42.456Z,13.18
2023-04-18T05:44:09.541Z,14.68
2023-04-18T05:46:36.456Z,11.57
2023-04-18T05:49:03.686Z,15.75
2023-04-18T05:51:31.421Z,15.45
2023-04-18T05:53:58.285Z,12.95
2023-04-18T05:56:25.300Z,16.95
2023-04-18T05:58:52.156Z,13.93
2023-04-18T06:01:18.992Z,16.20
2023-04-18T06:03:46.133Z,15.80
2023-04-18T06:06:13.753Z,16.08
2023-04-18T06:08:40.728Z,14.93
2023-04-18T06:11:09.047Z,17.70
2023-04-18T06:13:37.257Z,15.70
2023-04-18T06:16:04.233Z,15.00
2023-04-18T06:18:31.405Z,19.35
2023-04-18T06:20:58.255Z,16.52
2023-04-18T06:23:25.180Z,15.30
2023-04-18T06:25:52.261Z,15.20
2023-04-18T06:28:19.124Z,11.95
2023-04-18T06:30:45.998Z,15.75
2023-04-18T06:33:12.850Z,11.88
2023-04-18T06:35:39.760Z,17.25
2023-04-18T06:38:06.722Z,12.15
2023-04-18T06:40:33.551Z,13.18
2023-04-18T06:43:00.406Z,13.00
2023-04-18T06:45:27.280Z,12.18
2023-04-18T06:47:54.185Z,10.10
2023-04-18T06:50:21.156Z,10.20
2023-04-18T06:52:48.039Z,10.90
2023-04-18T06:55:14.904Z,10.37
2023-04-18T06:57:42.624Z,10.15
2023-04-18T07:00:10.512Z,11.50
2023-04-18T07:02:38.595Z,9.00
2023-04-18T07:05:06.653Z,9.20
2023-04-18T07:07:34.377Z,13.98
2023-04-18T07:10:01.697Z,13.60
2023-04-18T07:12:28.639Z,14.18
2023-04-18T07:14:55.539Z,11.57
2023-04-18T07:17:22.408Z,12.05
2023-04-18T07:19:49.370Z,14.32
2023-04-18T07:22:16.301Z,17.25
2023-04-18T07:24:44.128Z,16.20
2023-04-18T07:27:11.002Z,20.88
2023-04-18T07:29:38.154Z,20.73
2023-04-18T07:32:06.233Z,14.18
2023-04-18T07:34:36.228Z,13.07
2023-04-18T07:37:03.319Z,16.08
2023-04-18T07:39:31.902Z,17.20
2023-04-18T07:41:58.974Z,14.75
2023-04-18T07:44:25.872Z,12.53
2023-04-18T07:46:53.156Z,19.15
2023-04-18T07:49:20.040Z,19.08
2023-04-18T07:51:46.984Z,23.13
2023-04-18T07:54:13.879Z,15.30
2023-04-18T07:56:41.056Z,17.88
2023-04-18T07:59:07.919Z,27.87
2023-04-18T08:01:34.809Z,28.35
2023-04-18T08:04:02.249Z,20.70
2023-04-18T08:06:29.625Z,17.92
2023-04-18T08:08:58.952Z,16.27
2023-04-18T08:11:26.249Z,13.25
2023-04-18T08:13:53.146Z,12.13
2023-04-18T08:16:20.083Z,16.27
2023-04-18T08:18:46.977Z,13.45
2023-04-18T08:21:13.881Z,11.57
2023-04-18T08:23:40.862Z,7.70
2023-04-18T08:26:07.721Z,8.50
2023-04-18T08:28:34.861Z,9.25
2023-04-18T08:31:01.895Z,9.90
2023-04-18T08:33:29.561Z,7.45
2023-04-18T08:35:56.466Z,8.65
2023-04-18T08:38:23.425Z,8.82
2023-04-18T08:40:50.324Z,10.65
2023-04-18T08:43:17.177Z,8.98
2023-04-18T08:45:44.925Z,6.43
2023-04-18T08:48:13.828Z,7.80
2023-04-18T08:50:44.899Z,5.80
2023-04-18T08:53:12.328Z,8.10
2023-04-18T08:55:42.076Z,7.80
2023-04-18T08:58:08.925Z,8.55
2023-04-18T09:00:35.726Z,7.87
2023-04-18T09:03:03.950Z,7.35
2023-04-18T09:05:31.105Z,6.55
2023-04-18T09:07:58.599Z,7.23
2023-04-18T09:10:33.541Z,8.65
2023-04-18T09:13:03.392Z,5.93
2023-04-18T09:15:30.893Z,8.15
2023-04-18T09:17:59.767Z,5.45
2023-04-18T09:20:34.685Z,4.87
2023-04-18T09:23:14.783Z,5.63
2023-04-18T09:25:44.305Z,6.75
2023-04-18T09:28:28.820Z,6.30
2023-04-18T09:31:07.987Z,5.05
2023-04-18T09:33:36.731Z,5.32
2023-04-18T09:36:22.756Z,6.80
2023-04-18T09:38:54.506Z,6.80
2023-04-18T09:41:23.359Z,6.22
2023-04-18T09:43:50.370Z,5.85
2023-04-18T09:46:22.039Z,4.72
2023-04-18T09:48:48.956Z,5.60
2023-04-18T09:51:16.675Z,4.18
2023-04-18T09:53:45.115Z,4.63
2023-04-18T09:56:27.199Z,5.30
2023-04-18T09:59:11.780Z,12.75
2023-04-18T10:01:45.030Z,16.13
2023-04-18T10:04:14.504Z,13.27
2023-04-18T10:06:43.121Z,17.75
2023-04-18T10:09:10.971Z,13.57
2023-04-18T10:11:38.664Z,15.75
2023-04-18T10:14:09.793Z,11.23
2023-04-18T10:16:37.992Z,11.60
2023-04-18T10:19:28.750Z,9.30
2023-04-18T10:21:57.490Z,6.80
2023-04-18T10:24:49.854Z,8.48
2023-04-18T10:27:18.037Z,7.25
2023-04-18T10:29:52.822Z,8.70
2023-04-18T10:32:23.841Z,7.18
2023-04-18T10:34:53.440Z,9.93
2023-04-18T10:37:20.447Z,8.93
2023-04-18T10:39:48.784Z,9.77
2023-04-18T10:42:15.654Z,10.73
2023-04-18T10:44:42.530Z,8.77
2023-04-18T10:47:09.412Z,9.25
2023-04-18T10:49:39.553Z,8.60
2023-04-18T10:52:10.148Z,10.35
2023-04-18T10:54:59.128Z,12.00
2023-04-18T10:57:41.606Z,8.98
2023-04-18T11:00:13.971Z,7.97
2023-04-18T11:02:48.090Z,8.90
2023-04-18T11:05:20.781Z,9.15
2023-04-18T11:07:51.773Z,9.85
2023-04-18T11:10:25.605Z,11.68
2023-04-18T11:12:53.532Z,11.88
2023-04-18T11:15:24.801Z,10.50
2023-04-18T11:17:59.876Z,12.23
2023-04-18T11:20:27.181Z,8.65
2023-04-18T11:22:55.035Z,15.97
2023-04-18T11:25:36.410Z,16.13
2023-04-18T11:28:04.329Z,8.60
2023-04-18T11:30:41.641Z,8.17
2023-04-18T11:33:09.591Z,8.43
2023-04-18T11:35:46.685Z,6.78
2023-04-18T11:38:15.872Z,8.73
2023-04-18T11:40:49.682Z,8.13
2023-04-18T11:43:24.505Z,15.07
2023-04-18T11:46:01.804Z,11.95
2023-04-18T11:48:50.257Z,10.35
2023-04-18T11:51:36.953Z,11.82
2023-04-18T11:54:04.324Z,24.92
2023-04-18T11:56:32.976Z,8.00
2023-04-18T11:59:08.970Z,11.70
2023-04-18T12:01:35.797Z,11.35
2023-04-18T12:04:09.145Z,7.85
2023-04-18T12:06:53.440Z,7.65
2023-04-18T12:09:22.760Z,7.35
2023-04-18T12:12:02.851Z,7.55
2023-04-18T12:14:30.438Z,8.23
2023-04-18T12:16:57.344Z,5.97
2023-04-18T12:19:29.374Z,7.80
2023-04-18T12:22:01.033Z,8.60
2023-04-18T12:24:29.078Z,7.37
2023-04-18T12:26:58.078Z,7.03
2023-04-18T12:29:25.757Z,7.00
2023-04-18T12:31:53.000Z,8.05
2023-04-18T12:34:20.278Z,6.53
2023-04-18T12:36:47.232Z,8.17
2023-04-18T12:39:14.100Z,8.27
2023-04-18T12:41:41.042Z,5.97
2023-04-18T12:44:07.945Z,7.97
2023-04-18T12:46:34.906Z,7.10
2023-04-18T12:49:01.840Z,7.00
2023-04-18T12:51:28.783Z,8.38
2023-04-18T12:53:56.376Z,7.35
2023-04-18T12:56:23.333Z,5.45
2023-04-18T12:58:50.781Z,5.57
2023-04-18T13:01:18.087Z,9.88
2023-04-18T13:03:48.647Z,8.35
2023-04-18T13:06:20.686Z,7.00
2023-04-18T13:08:47.544Z,6.28
2023-04-18T13:11:14.865Z,10.07
2023-04-18T13:13:41.710Z,6.50
2023-04-18T13:16:08.629Z,8.45
2023-04-18T13:18:35.514Z,6.13
2023-04-18T13:21:02.429Z,8.90
2023-04-18T13:23:29.301Z,5.75
2023-04-18T13:25:56.164Z,7.13
2023-04-18T13:28:24.226Z,6.65
2023-04-18T13:30:51.047Z,5.40
2023-04-18T13:33:18.029Z,7.43
2023-04-18T13:35:44.951Z,7.38
2023-04-18T13:38:11.741Z,6.78
2023-04-18T13:40:38.838Z,4.72
2023-04-18T13:43:05.840Z,5.10
2023-04-18T13:45:32.739Z,5.72
2023-04-18T13:47:59.682Z,6.03
2023-04-18T13:50:26.630Z,3.60
2023-04-18T13:52:54.644Z,5.60
2023-04-18T13:55:21.864Z,6.07
2023-04-18T13:57:48.732Z,4.57
2023-04-18T14:00:17.055Z,5.93
2023-04-18T14:02:44.013Z,8.70
2023-04-18T14:05:11.436Z,9.18
2023-04-18T14:07:38.525Z,8.93
2023-04-18T14:10:05.907Z,5.73
2023-04-18T14:12:32.763Z,5.70
2023-04-18T14:14:59.728Z,9.27
2023-04-18T14:17:26.649Z,5.55
2023-04-18T14:19:53.612Z,5.65
2023-04-18T14:22:20.631Z,8.20
2023-04-18T14:24:47.479Z,8.90
2023-04-18T14:27:14.373Z,6.47
2023-04-18T14:29:41.395Z,4.47
2023-04-18T14:32:08.528Z,7.40
2023-04-18T14:34:36.777Z,6.57
2023-04-18T14:37:05.060Z,6.20
2023-04-18T14:39:32.107Z,6.73
2023-04-18T14:41:58.899Z,7.70
2023-04-18T14:44:25.833Z,5.15
2023-04-18T14:46:52.750Z,4.68
2023-04-18T14:49:19.611Z,6.18
2023-04-18T14:51:46.431Z,5.80
2023-04-18T14:54:13.362Z,6.70
2023-04-18T14:56:40.192Z,9.53
2023-04-18T14:59:07.032Z,5.07
2023-04-18T15:01:33.956Z,7.15
2023-04-18T15:04:01.053Z,8.23
2023-04-18T15:06:28.425Z,7.13
2023-04-18T15:08:55.298Z,8.55
2023-04-18T15:11:23.127Z,6.88
2023-04-18T15:13:50.619Z,6.75
2023-04-18T15:16:17.510Z,7.95
2023-04-18T15:18:45.143Z,8.30
2023-04-18T15:21:12.054Z,9.07
2023-04-18T15:23:39.022Z,8.02
2023-04-18T15:26:06.427Z,5.90
2023-04-18T15:28:33.335Z,5.10
2023-04-18T15:31:00.226Z,5.00
2023-04-18T15:33:27.143Z,5.47
2023-04-18T15:35:56.184Z,4.95
2023-04-18T15:38:23.223Z,5.10
2023-04-18T15:40:50.472Z,5.05
2023-04-18T15:43:17.511Z,3.95
2023-04-18T15:45:44.604Z,4.65
2023-04-18T15:48:13.100Z,5.15
2023-04-18T15:50:41.941Z,6.78
2023-04-18T15:53:08.808Z,3.78
2023-04-18T15:55:35.750Z,4.72
2023-04-18T15:58:02.691Z,5.10
2023-04-18T16:00:29.560Z,6.68
2023-04-18T16:02:56.563Z,4.20
2023-04-18T16:05:23.615Z,4.90
2023-04-18T16:07:52.254Z,5.25
2023-04-18T16:10:19.384Z,3.42
2023-04-18T16:12:46.325Z,4.82
2023-04-18T16:15:13.561Z,4.47
2023-04-18T16:17:40.481Z,5.15
2023-04-18T16:20:09.044Z,5.50
2023-04-18T16:22:36.470Z,7.65
2023-04-18T16:25:04.105Z,6.25
2023-04-18T16:27:33.079Z,4.47
2023-04-18T16:29:59.970Z,5.45
2023-04-18T16:32:26.894Z,5.20
2023-04-18T16:34:53.887Z,5.15
2023-04-18T16:37:20.768Z,9.43
2023-04-18T16:39:47.635Z,6.03
2023-04-18T16:42:15.872Z,5.43
2023-04-18T16:44:44.737Z,4.88
2023-04-18T16:47:11.680Z,5.15
2023-04-18T16:49:38.650Z,5.32
2023-04-18T16:52:05.536Z,4.93
2023-04-18T16:54:32.531Z,7.03
2023-04-18T16:56:59.446Z,6.68
2023-04-18T16:59:27.354Z,4.35
2023-04-18T17:01:54.293Z,4.78
2023-04-18T17:04:21.779Z,7.13
2023-04-18T17:06:50.359Z,6.55
2023-04-18T17:09:19.789Z,7.38
2023-04-18T17:11:46.908Z,6.35
2023-04-18T17:14:14.106Z,6.53
2023-04-18T17:16:42.231Z,8.80
2023-04-18T17:19:10.153Z,6.40
2023-04-18T17:21:37.758Z,6.05
2023-04-18T17:24:06.957Z,6.43
2023-04-18T17:26:35.444Z,8.82
2023-04-18T17:29:04.132Z,6.35
2023-04-18T17:31:31.942Z,7.05
2023-04-18T17:33:59.767Z,9.23
2023-04-18T17:36:27.262Z,9.77
2023-04-18T17:38:54.291Z,8.95
2023-04-18T17:41:21.748Z,6.75
2023-04-18T17:43:50.844Z,6.68
2023-04-18T17:46:17.863Z,8.90
2023-04-18T17:48:45.840Z,7.93
2023-04-18T17:51:12.743Z,9.25
2023-04-18T17:53:39.634Z,8.30
2023-04-18T17:56:06.558Z,6.75
2023-04-18T17:58:33.633Z,9.30
2023-04-18T18:01:00.703Z,11.00
2023-04-18T18:03:27.812Z,12.32
2023-04-18T18:05:58.188Z,9.73
2023-04-18T18:08:25.721Z,9.02
2023-04-18T18:10:54.868Z,9.55
2023-04-18T18:13:21.673Z,12.00
2023-04-18T18:15:48.461Z,10.75
2023-04-18T18:18:15.248Z,12.45
2023-04-18T18:20:43.235Z,9.00
2023-04-18T18:23:10.240Z,9.02
2023-04-18T18:25:37.740Z,12.85
2023-04-18T18:28:04.787Z,6.70
2023-04-18T18:30:31.821Z,9.50
2023-04-18T18:32:59.067Z,9.07
2023-04-18T18:35:26.025Z,11.77
2023-04-18T18:37:52.861Z,7.28
2023-04-18T18:40:19.767Z,9.75
2023-04-18T18:42:46.760Z,8.98
2023-04-18T18:45:13.657Z,9.55
2023-04-18T18:47:40.887Z,8.20
2023-04-18T18:50:08.087Z,10.02
2023-04-18T18:52:35.052Z,9.68
2023-04-18T18:55:02.010Z,9.75
2023-04-18T18:57:28.916Z,7.35
2023-04-18T18:59:56.053Z,8.88
2023-04-18T19:02:23.319Z,7.18
2023-04-18T19:04:50.316Z,7.13
2023-04-18T19:07:17.220Z,9.55
2023-04-18T19:09:45.976Z,6.50
2023-04-18T19:12:12.824Z,11.23
2023-04-18T19:14:41.902Z,8.48
2023-04-18T19:17:09.335Z,8.57
2023-04-18T19:19:36.283Z,8.60
2023-04-18T19:22:03.201Z,7.40
2023-04-18T19:24:31.965Z,6.85
2023-04-18T19:26:59.732Z,6.32
2023-04-18T19:29:26.754Z,8.20
2023-04-18T19:31:53.659Z,6.97
2023-04-18T19:34:22.130Z,7.93
2023-04-18T19:36:49.047Z,8.02
2023-04-18T19:39:16.519Z,6.68
2023-04-18T19:41:43.795Z,7.93
2023-04-18T19:44:10.658Z,9.23
2023-04-18T19:46:37.600Z,4.90
2023-04-18T19:49:04.521Z,5.72
2023-04-18T19:51:31.404Z,7.70
2023-04-18T19:53:58.413Z,5.67
2023-04-18T19:56:25.315Z,8.15
2023-04-18T19:58:52.190Z,4.40
2023-04-18T20:01:20.915Z,6.82
2023-04-18T20:03:48.438Z,6.10
2023-04-18T20:06:16.768Z,5.13
2023-04-18T20:08:45.790Z,6.85
2023-04-18T20:11:16.705Z,5.77
2023-04-18T20:13:43.555Z,6.93
2023-04-18T20:16:13.559Z,7.78
2023-04-18T20:18:41.927Z,5.10
2023-04-18T20:21:09.800Z,5.88
2023-04-18T20:23:38.038Z,5.63
2023-04-18T20:26:04.933Z,4.90
2023-04-18T20:28:32.125Z,4.95
2023-04-18T20:30:59.326Z,5.95
2023-04-18T20:33:26.255Z,4.05
2023-04-18T20:35:54.769Z,5.10
2023-04-18T20:38:25.933Z,4.25
2023-04-18T20:40:54.290Z,7.82
2023-04-18T20:43:21.401Z,4.97
2023-04-18T20:45:51.572Z,7.00
2023-04-18T20:48:19.102Z,5.40
2023-04-18T20:50:51.232Z,5.82
2023-04-18T20:53:22.434Z,4.90
2023-04-18T20:55:49.435Z,4.65
2023-04-18T20:58:16.828Z,5.22
2023-04-18T21:00:44.884Z,3.60
2023-04-18T21:03:15.910Z,6.13
2023-04-18T21:05:43.929Z,6.13
2023-04-18T21:08:13.656Z,3.97
2023-04-18T21:10:40.721Z,4.97
2023-04-18T21:13:09.174Z,5.80
2023-04-18T21:15:36.397Z,3.83
2023-04-18T21:18:03.334Z,4.50
2023-04-18T21:20:30.530Z,4.28
2023-04-18T21:22:57.417Z,5.22
2023-04-18T21:25:24.395Z,4.45
2023-04-18T21:27:51.295Z,3.88
2023-04-18T21:30:18.408Z,3.35
2023-04-18T21:32:46.168Z,4.45
2023-04-18T21:35:13.190Z,5.22
2023-04-18T21:37:40.196Z,2.17
2023-04-18T21:40:07.767Z,4.50
2023-04-18T21:42:35.635Z,4.40
2023-04-18T21:45:02.984Z,2.28
2023-04-18T21:47:31.845Z,5.70
2023-04-18T21:49:58.816Z,2.97
2023-04-18T21:52:25.639Z,2.35
2023-04-18T21:54:52.769Z,3.88
2023-04-18T21:57:19.790Z,4.85
2023-04-18T21:59:46.609Z,4.53
2023-04-18T22:02:13.474Z,4.35
2023-04-18T22:04:42.750Z,3.38
2023-04-18T22:07:10.045Z,4.20
2023-04-18T22:09:37.142Z,5.68
2023-04-18T22:12:04.650Z,3.55
2023-04-18T22:14:32.254Z,5.32
2023-04-18T22:16:59.483Z,4.67
2023-04-18T22:19:29.375Z,4.28
2023-04-18T22:21:56.405Z,3.60
2023-04-18T22:24:23.249Z,3.65
2023-04-18T22:26:50.234Z,4.00
2023-04-18T22:29:17.105Z,5.05
2023-04-18T22:31:44.180Z,4.55
2023-04-18T22:34:10.993Z,4.45
2023-04-18T22:36:38.032Z,3.42
2023-04-18T22:39:04.914Z,3.72
2023-04-18T22:41:31.727Z,3.67
2023-04-18T22:43:58.535Z,5.67
2023-04-18T22:46:26.132Z,2.90
2023-04-18T22:48:52.998Z,4.40
2023-04-18T22:51:20.221Z,3.65
2023-04-18T22:53:47.022Z,4.10
2023-04-18T22:56:13.874Z,3.10
2023-04-18T22:58:40.800Z,5.22
2023-04-18T23:01:07.771Z,5.15
2023-04-18T23:03:34.988Z,3.08
2023-04-18T23:06:02.027Z,2.67
2023-04-18T23:08:28.913Z,3.58
2023-04-18T23:10:55.884Z,4.03
2023-04-18T23:13:22.918Z,2.88
2023-04-18T23:15:49.841Z,3.80
2023-04-18T23:18:16.898Z,3.20
2023-04-18T23:20:43.692Z,3.13
2023-04-18T23:23:10.586Z,4.57
2023-04-18T23:25:37.784Z,4.38
2023-04-18T23:28:04.851Z,7.03
2023-04-18T23:30:31.858Z,3.67
2023-04-18T23:32:58.831Z,3.67
2023-04-18T23:35:25.772Z,4.28
2023-04-18T23:37:52.673Z,4.27
2023-04-18T23:40:19.802Z,3.10
2023-04-18T23:42:47.187Z,3.00
2023-04-18T23:45:14.092Z,3.80
2023-04-18T23:47:41.122Z,3.30
2023-04-18T23:50:08.636Z,2.70
2023-04-18T23:52:35.643Z,4.30
2023-04-18T23:55:02.486Z,3.00
2023-04-18T23:57:29.364Z,3.70
2023-04-18T23:59:56.270Z,5.50
